sensor_id;sensor_type;location;lat;lon;timestamp;pressure;altitude;pressure_sealevel;temperature;humidity
73974;BME280;62336;-26.094;27.994;2023-09-08T00:00:28;85099.98;;;27.12;4.81
73974;BME280;62336;-26.094;27.994;2023-09-08T00:02:54;85095.88;;;27.16;5.02
73974;BME280;62336;-26.094;27.994;2023-09-08T00:05:18;85096.97;;;26.71;4.72
73974;BME280;62336;-26.094;27.994;2023-09-08T00:07:43;85090.89;;;27.17;4.56
73974;BME280;62336;-26.094;27.994;2023-09-08T00:10:09;85090.54;;;27.26;5.05
73974;BME280;62336;-26.094;27.994;2023-09-08T00:12:33;85087.87;;;27.46;4.89
73974;BME280;62336;-26.094;27.994;2023-09-08T00:15:00;85086.77;;;27.42;5.12
73974;BME280;62336;-26.094;27.994;2023-09-08T00:17:24;85084.62;;;26.94;4.77
73974;BME280;62336;-26.094;27.994;2023-09-08T00:19:49;85080.94;;;26.95;5.25
73974;BME280;62336;-26.094;27.994;2023-09-08T00:22:14;85080.56;;;27.27;4.46
73974;BME280;62336;-26.094;27.994;2023-09-08T00:24:39;85078.94;;;27.32;4.79
73974;BME280;62336;-26.094;27.994;2023-09-08T00:27:05;85075.53;;;27.00;5.17
73974;BME280;62336;-26.094;27.994;2023-09-08T00:29:30;85072.09;;;26.83;5.33
73974;BME280;62336;-26.094;27.994;2023-09-08T00:31:55;85072.94;;;26.91;4.95
73974;BME280;62336;-26.094;27.994;2023-09-08T00:34:21;85066.75;;;26.79;5.31
73974;BME280;62336;-26.094;27.994;2023-09-08T00:36:46;85062.93;;;27.15;4.92
73974;BME280;62336;-26.094;27.994;2023-09-08T00:39:11;85058.39;;;27.59;4.75
73974;BME280;62336;-26.094;27.994;2023-09-08T00:41:36;85056.66;;;27.17;4.73
73974;BME280;62336;-26.094;27.994;2023-09-08T00:44:01;85056.29;;;27.01;4.99
73974;BME280;62336;-26.094;27.994;2023-09-08T00:46:26;85051.15;;;26.98;4.48
73974;BME280;62336;-26.094;27.994;2023-09-08T00:48:51;85051.62;;;26.66;4.78
73974;BME280;62336;-26.094;27.994;2023-09-08T00:51:17;85050.90;;;26.43;5.09
73974;BME280;62336;-26.094;27.994;2023-09-08T00:53:42;85050.74;;;26.51;6.01
73974;BME280;62336;-26.094;27.994;2023-09-08T00:56:07;85052.52;;;26.31;6.44
73974;BME280;62336;-26.094;27.994;2023-09-08T00:58:32;85052.11;;;26.23;5.24
73974;BME280;62336;-26.094;27.994;2023-09-08T01:00:57;85051.85;;;26.12;4.78
73974;BME280;62336;-26.094;27.994;2023-09-08T01:03:22;85050.01;;;26.54;4.81
73974;BME280;62336;-26.094;27.994;2023-09-08T01:05:47;85048.45;;;26.45;4.82
73974;BME280;62336;-26.094;27.994;2023-09-08T01:08:13;85050.62;;;26.42;4.89
73974;BME280;62336;-26.094;27.994;2023-09-08T01:10:39;85049.20;;;25.98;5.25
73974;BME280;62336;-26.094;27.994;2023-09-08T01:13:03;85045.68;;;26.66;5.59
73974;BME280;62336;-26.094;27.994;2023-09-08T01:15:29;85047.94;;;26.45;5.04
73974;BME280;62336;-26.094;27.994;2023-09-08T01:17:53;85049.63;;;26.22;4.86
73974;BME280;62336;-26.094;27.994;2023-09-08T01:20:24;85048.22;;;26.17;5.27
73974;BME280;62336;-26.094;27.994;2023-09-08T01:22:58;85045.23;;;26.50;5.41
73974;BME280;62336;-26.094;27.994;2023-09-08T01:25:14;85040.48;;;26.77;4.73
73974;BME280;62336;-26.094;27.994;2023-09-08T01:27:35;85041.35;;;26.08;4.94
73974;BME280;62336;-26.094;27.994;2023-09-08T01:29:59;85037.57;;;26.62;5.39
73974;BME280;62336;-26.094;27.994;2023-09-08T01:32:24;85036.81;;;27.57;4.73
73974;BME280;62336;-26.094;27.994;2023-09-08T01:34:49;85037.15;;;27.06;5.04
73974;BME280;62336;-26.094;27.994;2023-09-08T01:37:14;85034.88;;;26.66;5.38
73974;BME280;62336;-26.094;27.994;2023-09-08T01:39:39;85031.72;;;27.25;4.96
73974;BME280;62336;-26.094;27.994;2023-09-08T01:42:04;85034.56;;;26.67;4.91
73974;BME280;62336;-26.094;27.994;2023-09-08T01:44:29;85033.44;;;26.79;4.97
73974;BME280;62336;-26.094;27.994;2023-09-08T01:46:55;85034.93;;;26.82;4.83
73974;BME280;62336;-26.094;27.994;2023-09-08T01:49:20;85034.61;;;26.79;5.11
73974;BME280;62336;-26.094;27.994;2023-09-08T01:51:45;85034.89;;;26.32;4.94
73974;BME280;62336;-26.094;27.994;2023-09-08T01:54:10;85032.64;;;26.66;4.84
73974;BME280;62336;-26.094;27.994;2023-09-08T01:56:35;85033.54;;;26.89;4.81
73974;BME280;62336;-26.094;27.994;2023-09-08T01:59:00;85037.13;;;26.29;5.19
73974;BME280;62336;-26.094;27.994;2023-09-08T02:01:25;85035.55;;;26.01;5.10
73974;BME280;62336;-26.094;27.994;2023-09-08T02:03:50;85036.66;;;26.63;4.96
73974;BME280;62336;-26.094;27.994;2023-09-08T02:06:15;85038.02;;;26.46;5.13
73974;BME280;62336;-26.094;27.994;2023-09-08T02:08:40;85039.45;;;26.28;5.47
73974;BME280;62336;-26.094;27.994;2023-09-08T02:11:05;85042.52;;;26.39;4.96
73974;BME280;62336;-26.094;27.994;2023-09-08T02:13:30;85043.08;;;25.84;5.39
73974;BME280;62336;-26.094;27.994;2023-09-08T02:15:56;85042.06;;;26.36;4.77
73974;BME280;62336;-26.094;27.994;2023-09-08T02:18:21;85041.04;;;25.96;5.21
73974;BME280;62336;-26.094;27.994;2023-09-08T02:20:46;85041.27;;;25.87;5.90
73974;BME280;62336;-26.094;27.994;2023-09-08T02:23:11;85043.74;;;25.47;5.21
73974;BME280;62336;-26.094;27.994;2023-09-08T02:25:37;85043.61;;;25.63;5.16
73974;BME280;62336;-26.094;27.994;2023-09-08T02:28:02;85046.22;;;25.78;5.00
73974;BME280;62336;-26.094;27.994;2023-09-08T02:30:27;85051.52;;;25.74;4.92
73974;BME280;62336;-26.094;27.994;2023-09-08T02:32:52;85053.11;;;25.70;5.48
73974;BME280;62336;-26.094;27.994;2023-09-08T02:35:16;85053.75;;;26.54;5.21
73974;BME280;62336;-26.094;27.994;2023-09-08T02:37:42;85054.42;;;26.42;5.07
73974;BME280;62336;-26.094;27.994;2023-09-08T02:40:08;85052.78;;;25.81;4.84
73974;BME280;62336;-26.094;27.994;2023-09-08T02:42:32;85054.74;;;25.82;5.72
73974;BME280;62336;-26.094;27.994;2023-09-08T02:44:57;85060.09;;;26.05;5.34
73974;BME280;62336;-26.094;27.994;2023-09-08T02:47:22;85061.77;;;26.21;5.01
73974;BME280;62336;-26.094;27.994;2023-09-08T02:49:47;85062.76;;;26.16;5.25
73974;BME280;62336;-26.094;27.994;2023-09-08T02:52:13;85061.58;;;25.70;5.57
73974;BME280;62336;-26.094;27.994;2023-09-08T02:54:38;85061.29;;;25.67;5.61
73974;BME280;62336;-26.094;27.994;2023-09-08T02:57:03;85063.39;;;25.35;6.25
73974;BME280;62336;-26.094;27.994;2023-09-08T02:59:28;85063.80;;;25.55;5.95
73974;BME280;62336;-26.094;27.994;2023-09-08T03:01:53;85061.78;;;25.51;5.45
73974;BME280;62336;-26.094;27.994;2023-09-08T03:04:18;85063.40;;;25.42;5.50
73974;BME280;62336;-26.094;27.994;2023-09-08T03:06:43;85063.31;;;25.25;5.85
73974;BME280;62336;-26.094;27.994;2023-09-08T03:09:08;85064.58;;;25.73;5.65
73974;BME280;62336;-26.094;27.994;2023-09-08T03:11:34;85067.22;;;25.45;5.35
73974;BME280;62336;-26.094;27.994;2023-09-08T03:13:59;85071.51;;;25.49;5.56
73974;BME280;62336;-26.094;27.994;2023-09-08T03:16:28;85075.08;;;25.24;5.41
73974;BME280;62336;-26.094;27.994;2023-09-08T03:18:49;85077.77;;;25.21;5.91
73974;BME280;62336;-26.094;27.994;2023-09-08T03:21:14;85076.38;;;25.91;5.59
73974;BME280;62336;-26.094;27.994;2023-09-08T03:23:40;85077.77;;;25.61;5.59
73974;BME280;62336;-26.094;27.994;2023-09-08T03:26:04;85078.20;;;25.61;5.38
73974;BME280;62336;-26.094;27.994;2023-09-08T03:28:30;85081.66;;;26.09;5.29
73974;BME280;62336;-26.094;27.994;2023-09-08T03:30:54;85081.31;;;25.88;5.41
73974;BME280;62336;-26.094;27.994;2023-09-08T03:33:19;85082.64;;;26.09;5.22
73974;BME280;62336;-26.094;27.994;2023-09-08T03:35:45;85084.69;;;25.78;5.27
73974;BME280;62336;-26.094;27.994;2023-09-08T03:38:10;85088.28;;;25.85;5.72
73974;BME280;62336;-26.094;27.994;2023-09-08T03:40:36;85091.96;;;25.81;6.66
73974;BME280;62336;-26.094;27.994;2023-09-08T03:43:02;85095.04;;;25.85;6.53
73974;BME280;62336;-26.094;27.994;2023-09-08T03:45:27;85100.66;;;25.11;6.96
73974;BME280;62336;-26.094;27.994;2023-09-08T03:47:52;85104.80;;;24.91;6.57
73974;BME280;62336;-26.094;27.994;2023-09-08T03:50:17;85108.06;;;25.12;6.00
73974;BME280;62336;-26.094;27.994;2023-09-08T03:52:42;85110.42;;;25.88;5.94
73974;BME280;62336;-26.094;27.994;2023-09-08T03:55:07;85111.91;;;24.99;5.73
73974;BME280;62336;-26.094;27.994;2023-09-08T03:57:32;85118.93;;;25.02;6.04
73974;BME280;62336;-26.094;27.994;2023-09-08T03:59:58;85116.89;;;25.30;6.56
73974;BME280;62336;-26.094;27.994;2023-09-08T04:02:23;85117.94;;;25.40;6.40
73974;BME280;62336;-26.094;27.994;2023-09-08T04:04:48;85122.58;;;25.26;6.83
73974;BME280;62336;-26.094;27.994;2023-09-08T04:07:13;85125.57;;;25.19;7.09
73974;BME280;62336;-26.094;27.994;2023-09-08T04:09:38;85125.54;;;24.68;6.88
73974;BME280;62336;-26.094;27.994;2023-09-08T04:12:03;85128.35;;;24.15;7.16
73974;BME280;62336;-26.094;27.994;2023-09-08T04:14:29;85129.44;;;24.72;7.16
73974;BME280;62336;-26.094;27.994;2023-09-08T04:16:54;85132.65;;;24.91;6.95
73974;BME280;62336;-26.094;27.994;2023-09-08T04:19:19;85139.66;;;25.15;7.60
73974;BME280;62336;-26.094;27.994;2023-09-08T04:21:45;85140.04;;;24.69;6.39
73974;BME280;62336;-26.094;27.994;2023-09-08T04:24:10;85142.35;;;24.21;6.83
73974;BME280;62336;-26.094;27.994;2023-09-08T04:26:35;85143.25;;;24.27;7.31
73974;BME280;62336;-26.094;27.994;2023-09-08T04:29:00;85148.79;;;24.48;7.78
73974;BME280;62336;-26.094;27.994;2023-09-08T04:31:26;85154.90;;;24.15;7.05
73974;BME280;62336;-26.094;27.994;2023-09-08T04:33:51;85156.07;;;24.19;7.81
73974;BME280;62336;-26.094;27.994;2023-09-08T04:36:16;85159.52;;;24.13;7.84
73974;BME280;62336;-26.094;27.994;2023-09-08T04:38:42;85168.21;;;24.22;8.53
73974;BME280;62336;-26.094;27.994;2023-09-08T04:41:08;85175.03;;;24.32;7.93
73974;BME280;62336;-26.094;27.994;2023-09-08T04:43:33;85177.51;;;24.31;6.89
73974;BME280;62336;-26.094;27.994;2023-09-08T04:45:58;85176.04;;;23.95;7.34
73974;BME280;62336;-26.094;27.994;2023-09-08T04:48:24;85177.80;;;24.42;7.17
73974;BME280;62336;-26.094;27.994;2023-09-08T04:50:50;85181.60;;;25.08;7.54
73974;BME280;62336;-26.094;27.994;2023-09-08T04:53:15;85183.98;;;24.84;7.53
73974;BME280;62336;-26.094;27.994;2023-09-08T04:55:41;85186.65;;;24.56;7.67
73974;BME280;62336;-26.094;27.994;2023-09-08T04:58:06;85187.59;;;24.86;7.97
73974;BME280;62336;-26.094;27.994;2023-09-08T05:00:32;85191.75;;;24.73;8.09
73974;BME280;62336;-26.094;27.994;2023-09-08T05:02:57;85196.20;;;24.73;7.63
73974;BME280;62336;-26.094;27.994;2023-09-08T05:05:23;85193.72;;;25.07;8.13
73974;BME280;62336;-26.094;27.994;2023-09-08T05:07:47;85198.66;;;24.36;8.99
73974;BME280;62336;-26.094;27.994;2023-09-08T05:10:13;85200.36;;;25.31;8.42
73974;BME280;62336;-26.094;27.994;2023-09-08T05:12:38;85199.50;;;25.16;8.58
73974;BME280;62336;-26.094;27.994;2023-09-08T05:15:04;85204.60;;;24.87;8.02
73974;BME280;62336;-26.094;27.994;2023-09-08T05:17:29;85203.56;;;24.68;7.92
73974;BME280;62336;-26.094;27.994;2023-09-08T05:19:54;85208.13;;;24.87;8.48
73974;BME280;62336;-26.094;27.994;2023-09-08T05:22:20;85212.94;;;25.18;8.84
73974;BME280;62336;-26.094;27.994;2023-09-08T05:24:45;85220.38;;;24.89;8.87
